Agricola, Mississippi
Current Conditions -  °F | °C
As of 5:56 PM on Saturday 22 Nov 2014 (Local Time) from KMOB Reporting Station
Overcast Overcast  
Wind Chill: 62°   Ceiling: 1200
Heat Index: 62°   Visibility: 7mi
Dew Point: 58°   Wind: 8mph
Humidity: 86%   Direction: 90°E
Pressure: 30.09"   Gusts: NA
Location:  30.8443°N, 88.5703°W
Report Text: KMOB 222356Z 09007KT 7SM OVC012 17/14 A3009 RMK AO2 SLP189 T01670144 10206 20167 58005
Loading
Personal Weather Stations






























Interactive Weather Map New forecast layout! Learn more

10-Day Weather Forecast

Advertisements
Track Severe Weather on mobile